Time;durP1;ratioP1;P1;durP2;ratioP2;P2;SDS_P1;SDS_P2;PMS_P1;PMS_P2;Temp;Humidity;BMP_temperature;BMP_pressure;BME280_temperature;BME280_humidity;BME280_pressure;Samples;Min_cycle;Max_cycle;Signal;HPM_P1;HPM_P2
2023/01/30 02:05:39;;;;;;;8.50;5.20;;;;;;;-0.80;64.72;99197.29;105327;1280;613659;-39
2023/01/30 02:08:09;;;;;;;8.60;5.50;;;;;;;-0.51;63.54;99193.89;106552;1267;201011;-39
2023/01/30 02:11:02;;;;;;;8.60;5.70;;;;;;;-0.67;63.67;99192.71;106737;1271;61307;-38
2023/01/30 02:13:31;;;;;;;6.90;5.10;;;;;;;-0.80;63.89;99189.13;106702;1267;73481;-39
2023/01/30 02:16:01;;;;;;;9.20;5.20;;;;;;;-0.91;63.81;99189.00;106765;1268;69929;-38
2023/01/30 02:18:30;;;;;;;9.70;5.80;;;;;;;-0.92;64.00;99187.80;106735;1268;71050;-39
2023/01/30 02:21:35;;;;;;;8.80;5.60;;;;;;;-0.94;64.19;99182.30;106657;1266;60466;-39
2023/01/30 02:24:18;;;;;;;8.50;5.40;;;;;;;-0.98;64.51;99175.75;106668;1271;61530;-39
2023/01/30 02:27:02;;;;;;;7.90;5.70;;;;;;;-1.05;64.65;99170.70;106575;1267;73368;-39
2023/01/30 02:30:06;;;;;;;9.20;6.20;;;;;;;-1.12;64.95;99162.98;106648;1269;69984;-40
2023/01/30 02:32:47;;;;;;;10.80;6.40;;;;;;;-1.21;65.16;99163.42;106629;1269;73628;-39
2023/01/30 02:35:29;;;;;;;10.70;6.70;;;;;;;-1.29;65.56;99161.08;106637;1268;60170;-38
2023/01/30 02:38:17;;;;;;;10.40;6.50;;;;;;;-1.36;66.06;99157.23;106674;1266;60573;-38
2023/01/30 02:40:54;;;;;;;10.10;6.60;;;;;;;-1.32;66.13;99157.45;106732;1267;74219;-38
2023/01/30 02:43:33;;;;;;;9.10;6.80;;;;;;;-1.27;66.32;99155.94;106733;1269;69772;-38
2023/01/30 02:46:08;;;;;;;9.00;7.00;;;;;;;-1.26;66.35;99154.45;106709;1266;73938;-38
2023/01/30 02:48:39;;;;;;;10.30;7.10;;;;;;;-1.26;66.46;99150.88;106698;1267;60955;-38
2023/01/30 02:51:27;;;;;;;;;;;;;;;-1.27;66.41;99149.63;106640;1267;60540;-38
2023/01/30 02:53:55;;;;;;;13.60;8.10;;;;;;;-1.36;66.67;99142.30;106636;1264;72608;-38
2023/01/30 02:56:24;;;;;;;13.90;8.50;;;;;;;-1.42;66.76;99137.86;106735;1267;69754;-40
2023/01/30 02:58:58;;;;;;;12.20;8.20;;;;;;;-1.42;67.04;99139.08;106766;1267;72602;-39
2023/01/30 03:01:46;;;;;;;11.40;8.20;;;;;;;-1.39;67.28;99133.02;106041;1267;1002875;-39
2023/01/30 03:04:26;;;;;;;13.20;9.10;;;;;;;-1.32;67.41;99130.64;106747;1267;60549;-39
2023/01/30 03:07:20;;;;;;;16.60;9.50;;;;;;;-1.31;67.47;99134.40;106762;1266;73918;-40
2023/01/30 03:10:04;;;;;;;11.90;8.90;;;;;;;-1.32;67.57;99130.86;106672;1267;69598;-40
2023/01/30 03:12:52;;;;;;;15.00;9.30;;;;;;;-1.35;67.72;99123.66;106731;1270;73729;-39
2023/01/30 03:15:28;;;;;;;13.00;9.30;;;;;;;-1.37;67.96;99121.24;106691;1270;60455;-39
2023/01/30 03:17:56;;;;;;;16.30;9.60;;;;;;;-1.38;68.13;99116.95;106533;1267;61096;-39
2023/01/30 03:20:25;;;;;;;12.90;9.20;;;;;;;-1.41;68.32;99115.41;106711;1270;72065;-39
2023/01/30 03:22:55;;;;;;;;;;;;;;;-1.37;68.14;99118.11;106675;1269;68457;-39
2023/01/30 03:25:27;;;;;;;13.40;9.30;;;;;;;-1.33;68.29;99114.59;106674;1269;73248;-39
2023/01/30 03:27:56;;;;;;;13.10;9.10;;;;;;;-1.32;68.33;99112.77;106707;1265;59513;-39
2023/01/30 03:30:25;;;;;;;16.10;10.10;;;;;;;-1.31;68.43;99115.58;106623;1267;61191;-39
2023/01/30 03:33:01;;;;;;;15.00;10.30;;;;;;;-1.30;68.62;99112.89;106694;1268;73903;-40
2023/01/30 03:35:30;;;;;;;15.20;10.40;;;;;;;-1.29;68.70;99114.55;106746;1269;69689;-40
2023/01/30 03:38:03;;;;;;;16.10;10.60;;;;;;;-1.31;68.68;99111.80;106726;1267;73661;-39
2023/01/30 03:40:32;;;;;;;16.40;11.30;;;;;;;-1.33;68.80;99109.54;107125;1260;62194;-39
2023/01/30 03:43:00;;;;;;;13.60;9.30;;;;;;;-1.32;68.93;99107.86;107069;1258;61617;-39
2023/01/30 03:45:30;;;;;;;16.40;10.40;;;;;;;-1.24;68.82;99108.69;107137;1262;74233;-39
2023/01/30 03:47:59;;;;;;;16.60;11.20;;;;;;;-1.23;68.83;99107.85;107082;1257;69778;-39
2023/01/30 03:50:28;;;;;;;16.20;10.70;;;;;;;-1.24;69.02;99100.91;107147;1260;72128;-40
2023/01/30 03:52:57;;;;;;;15.80;11.10;;;;;;;-1.24;69.06;99096.38;107212;1261;59632;-39
2023/01/30 03:55:25;;;;;;;16.50;11.00;;;;;;;-1.25;69.37;99092.83;107103;1261;60362;-39
2023/01/30 03:57:57;;;;;;;14.70;9.80;;;;;;;-1.24;69.38;99089.21;107081;1258;73236;-39
2023/01/30 04:00:28;;;;;;;14.70;10.20;;;;;;;-1.27;69.50;99086.98;107116;1257;69609;-40
2023/01/30 04:02:57;;;;;;;14.30;7.90;;;;;;;-1.24;69.68;99087.83;107182;1261;73670;-39
2023/01/30 04:05:26;;;;;;;15.40;10.90;;;;;;;-1.18;69.59;99083.84;107239;1259;60553;-39
2023/01/30 04:07:58;;;;;;;14.30;10.10;;;;;;;-1.16;69.50;99081.96;107213;1262;59616;-39
2023/01/30 04:10:27;;;;;;;12.60;8.40;;;;;;;-1.18;69.38;99075.92;107174;1257;73053;-40
2023/01/30 04:12:56;;;;;;;11.00;7.90;;;;;;;-1.19;69.60;99071.20;107088;1261;68933;-39
2023/01/30 04:15:25;;;;;;;15.50;10.20;;;;;;;-1.20;69.66;99063.02;107054;1261;73905;-39
2023/01/30 04:18:13;;;;;;;13.80;9.50;;;;;;;-1.22;69.81;99066.73;107118;1260;59864;-39
2023/01/30 04:20:57;;;;;;;15.50;9.70;;;;;;;-1.25;70.02;99067.89;107158;1257;61346;-39
2023/01/30 04:23:30;;;;;;;11.70;8.90;;;;;;;-1.21;70.13;99069.00;107125;1260;73856;-39
2023/01/30 04:25:59;;;;;;;12.90;9.00;;;;;;;-1.14;70.01;99072.05;107074;1263;69901;-39
2023/01/30 04:28:28;;;;;;;14.60;9.60;;;;;;;-1.13;69.89;99072.66;107163;1258;72318;-40
2023/01/30 04:30:57;;;;;;;17.20;10.20;;;;;;;-1.14;69.94;99069.85;106426;1260;1003338;-40
2023/01/30 04:33:46;;;;;;;12.50;9.60;;;;;;;-1.15;70.07;99066.89;107154;1262;61782;-39
2023/01/30 04:36:15;;;;;;;14.50;10.10;;;;;;;-1.18;70.26;99065.13;107135;1257;72159;-39
2023/01/30 04:38:44;;;;;;;14.60;9.10;;;;;;;-1.19;70.43;99059.51;107171;1257;69869;-39
2023/01/30 04:41:13;;;;;;;13.00;9.00;;;;;;;-1.15;70.47;99060.61;107198;1260;72229;-40
2023/01/30 04:43:43;;;;;;;10.90;8.70;;;;;;;-1.10;70.59;99057.50;107143;1259;60450;-39
2023/01/30 04:46:31;;;;;;;10.90;8.50;;;;;;;-1.09;70.51;99053.13;107142;1262;60902;-39
2023/01/30 04:49:00;;;;;;;11.70;8.40;;;;;;;-1.13;70.76;99049.63;107181;1257;74300;-39
2023/01/30 04:51:29;;;;;;;12.40;8.90;;;;;;;-1.14;70.69;99040.28;107124;1257;68571;-39
2023/01/30 04:53:58;;;;;;;12.80;8.70;;;;;;;-1.16;70.82;99036.96;106319;1257;1003044;-39
2023/01/30 04:56:26;;;;;;;10.30;8.00;;;;;;;-1.19;70.78;99034.13;107078;1258;62103;-39
2023/01/30 04:58:55;;;;;;;7.50;5.80;;;;;;;-1.15;70.76;99033.23;107096;1261;61482;-40
2023/01/30 05:01:29;;;;;;;10.70;7.10;;;;;;;-1.10;70.70;99028.08;107217;1257;74324;-39
2023/01/30 05:03:58;;;;;;;12.60;7.40;;;;;;;-1.08;70.78;99021.41;107076;1257;67736;-39
2023/01/30 05:06:27;;;;;;;8.30;6.30;;;;;;;-1.09;70.78;99019.66;107068;1261;72854;-39
2023/01/30 05:08:56;;;;;;;9.10;6.60;;;;;;;-1.12;70.95;99016.20;107096;1260;59805;-40
2023/01/30 05:11:25;;;;;;;10.40;7.00;;;;;;;-1.15;70.87;99021.94;107220;1257;61645;-40
2023/01/30 05:13:54;;;;;;;7.60;5.00;;;;;;;-1.17;71.10;99019.38;107106;1260;72083;-39
2023/01/30 05:16:22;;;;;;;9.30;6.40;;;;;;;-1.15;71.18;99017.05;107178;1261;69977;-39
2023/01/30 05:18:51;;;;;;;11.00;7.30;;;;;;;-1.09;71.09;99015.35;107133;1260;73960;-39
2023/01/30 05:21:22;;;;;;;10.20;7.00;;;;;;;-1.08;70.87;99014.81;107148;1260;60820;-39
2023/01/30 05:23:51;;;;;;;10.10;7.50;;;;;;;-1.11;70.97;99013.80;107097;1259;61519;-39
2023/01/30 05:26:20;;;;;;;11.10;7.70;;;;;;;-1.14;71.19;99014.63;107188;1258;75414;-39
2023/01/30 05:28:53;;;;;;;11.10;7.80;;;;;;;-1.17;71.24;99011.55;107128;1259;68630;-39
2023/01/30 05:31:21;;;;;;;11.20;7.90;;;;;;;-1.19;71.45;99004.71;107197;1260;74068;-38
2023/01/30 05:33:51;;;;;;;10.30;6.90;;;;;;;-1.17;71.59;99000.38;107167;1259;60935;-39
2023/01/30 05:36:20;;;;;;;11.60;7.30;;;;;;;-1.12;71.50;98996.88;107170;1257;61621;-40
2023/01/30 05:38:49;;;;;;;12.10;7.30;;;;;;;-1.13;71.55;98994.94;107252;1258;73937;-39
2023/01/30 10:35:05;;;;;;;19.10;14.00;;;;;;;-0.47;76.75;98618.65;105018;1287;613346;-38
2023/01/30 10:37:59;;;;;;;19.50;13.80;;;;;;;-0.10;73.84;98610.33;106534;1265;197689;-38
2023/01/30 10:40:36;;;;;;;19.70;13.10;;;;;;;-0.20;73.65;98603.67;106731;1264;61503;-38
2023/01/30 10:43:28;;;;;;;15.10;10.60;;;;;;;-0.19;73.49;98600.34;106725;1265;72402;-38
2023/01/30 10:46:09;;;;;;;15.10;11.10;;;;;;;-0.21;73.35;98591.13;106727;1264;68941;-39
2023/01/30 10:48:45;;;;;;;15.40;10.90;;;;;;;-0.25;73.57;98585.23;106771;1267;73458;-38
2023/01/30 10:51:32;;;;;;;35.00;22.10;;;;;;;-0.28;73.29;98575.71;106831;1264;59579;-38
2023/01/30 10:54:07;;;;;;;22.70;15.00;;;;;;;-0.34;73.57;98568.52;107076;1258;61335;-38
2023/01/30 10:56:43;;;;;;;34.90;22.70;;;;;;;-0.32;73.36;98563.45;107240;1257;73432;-38
2023/01/30 10:59:21;;;;;;;20.10;14.00;;;;;;;-0.27;73.37;98559.64;107221;1263;69846;-38
2023/01/30 11:02:06;;;;;;;18.30;12.50;;;;;;;-0.28;73.15;98554.25;107208;1257;72561;-39
2023/01/30 11:04:40;;;;;;;23.20;13.40;;;;;;;-0.33;73.23;98552.67;107235;1258;60735;-39
2023/01/30 11:07:11;;;;;;;17.40;12.80;;;;;;;-0.40;73.06;98550.14;107214;1257;61242;-38
2023/01/30 11:09:44;;;;;;;15.70;10.80;;;;;;;-0.40;73.06;98540.67;107079;1257;74235;-38
2023/01/30 11:12:13;;;;;;;14.70;10.70;;;;;;;-0.35;73.00;98529.80;107271;1258;69971;-39
2023/01/30 11:14:57;;;;;;;18.40;13.20;;;;;;;-0.36;72.72;98528.63;107210;1263;73749;-39
2023/01/30 11:17:37;;;;;;;17.30;12.10;;;;;;;-0.42;73.20;98528.89;107223;1263;60392;-40
2023/01/30 11:20:15;;;;;;;16.20;12.10;;;;;;;-0.47;73.27;98526.58;107228;1263;61248;-40
2023/01/30 11:22:49;;;;;;;12.40;8.50;;;;;;;-0.51;73.40;98521.34;107205;1258;74298;-40
2023/01/30 11:25:20;;;;;;;15.90;11.90;;;;;;;-0.48;73.10;98517.48;107271;1257;68328;-40
2023/01/30 11:27:59;;;;;;;16.10;11.10;;;;;;;-0.45;73.28;98513.69;107246;1257;73864;-40
2023/01/30 11:30:35;;;;;;;16.50;12.10;;;;;;;-0.46;73.05;98510.98;107071;1257;60723;-40
2023/01/30 11:33:14;;;;;;;15.60;12.00;;;;;;;-0.45;73.47;98507.45;106404;1258;1003716;-39
2023/01/30 11:35:55;;;;;;;16.80;12.20;;;;;;;-0.46;73.24;98498.20;107156;1262;73959;-40
2023/01/30 11:38:32;;;;;;;19.10;13.60;;;;;;;-0.38;73.28;98489.05;107236;1263;69004;-40
2023/01/30 11:41:06;;;;;;;16.20;12.30;;;;;;;-0.33;72.73;98490.34;107241;1263;73582;-39
2023/01/30 11:43:36;;;;;;;23.50;15.90;;;;;;;-0.33;72.56;98485.63;107243;1257;60438;-40
2023/01/30 11:46:05;;;;;;;17.00;12.40;;;;;;;-0.35;72.51;98478.76;107268;1257;60517;-39
2023/01/30 11:48:34;;;;;;;16.40;11.50;;;;;;;-0.36;72.79;98472.85;107269;1263;74244;-40
2023/01/30 11:51:25;;;;;;;16.10;10.80;;;;;;;-0.31;72.56;98472.62;107217;1263;70013;-39
2023/01/30 11:54:02;;;;;;;19.80;13.80;;;;;;;-0.29;72.48;98470.52;106995;1257;73942;-39
2023/01/30 11:56:56;;;;;;;17.30;11.60;;;;;;;-0.28;72.40;98468.12;107213;1258;60903;-39
2023/01/30 11:59:33;;;;;;;18.20;11.70;;;;;;;-0.32;72.40;98457.77;107231;1257;61539;-39
2023/01/30 12:02:03;;;;;;;18.70;12.40;;;;;;;-0.36;72.48;98462.15;107221;1257;72947;-39
2023/01/30 12:04:31;;;;;;;17.00;11.70;;;;;;;-0.33;72.18;98457.64;107258;1257;69928;-39
2023/01/30 12:07:05;;;;;;;22.00;13.30;;;;;;;-0.29;72.27;98452.38;107253;1257;73919;-39
2023/01/30 12:09:35;;;;;;;20.00;12.90;;;;;;;-0.27;72.77;98446.47;107252;1257;59704;-38
2023/01/30 12:12:23;;;;;;;17.10;11.90;;;;;;;-0.28;72.48;98442.73;107285;1257;61047;-39
2023/01/30 12:14:51;;;;;;;31.20;18.70;;;;;;;-0.30;72.30;98434.88;107260;1257;71858;-39
2023/01/30 12:17:34;;;;;;;20.70;11.90;;;;;;;-0.32;72.15;98424.80;107200;1257;69819;-38
2023/01/30 12:20:10;;;;;;;22.30;14.20;;;;;;;-0.27;71.94;98418.96;107170;1262;72848;-39
2023/01/30 12:22:49;;;;;;;20.50;14.20;;;;;;;-0.27;72.12;98408.14;107232;1257;60696;-38
2023/01/30 12:25:24;;;;;;;19.10;13.30;;;;;;;-0.29;72.11;98408.81;107205;1257;61517;-39
2023/01/30 12:27:58;;;;;;;24.80;14.90;;;;;;;-0.31;72.38;98407.21;107249;1257;74186;-39
2023/01/30 12:30:41;;;;;;;17.40;11.20;;;;;;;-0.34;72.58;98410.02;107217;1257;69155;-39
2023/01/30 12:33:14;;;;;;;19.20;13.10;;;;;;;-0.29;72.42;98406.23;107220;1257;73836;-39
2023/01/30 12:35:49;;;;;;;17.20;12.30;;;;;;;-0.24;72.09;98401.14;107300;1257;60784;-39
2023/01/30 12:38:24;;;;;;;20.80;15.90;;;;;;;-0.21;72.17;98392.59;107128;1257;61504;-40
2023/01/30 12:41:09;;;;;;;16.20;12.80;;;;;;;-0.20;72.08;98395.25;107042;1258;73140;-40
2023/01/30 12:44:15;;;;;;;16.80;11.80;;;;;;;-0.20;71.93;98391.86;107186;1262;69927;-39
2023/01/30 12:47:08;;;;;;;19.10;10.70;;;;;;;-0.17;71.90;98396.44;107093;1258;72595;-40
2023/01/30 12:49:46;;;;;;;16.70;11.60;;;;;;;-0.09;71.55;98393.69;107084;1263;60989;-40
2023/01/30 12:52:27;;;;;;;25.20;18.40;;;;;;;-0.08;71.47;98394.04;107130;1257;61374;-39
2023/01/30 12:55:04;;;;;;;18.10;12.90;;;;;;;-0.05;71.91;98396.98;107160;1257;74228;-40
2023/01/30 12:57:39;;;;;;;17.70;12.80;;;;;;;-0.03;71.63;98392.94;107226;1257;69735;-39
2023/01/30 13:00:26;;;;;;;17.80;11.70;;;;;;;-0.01;71.51;98388.98;107183;1257;71478;-39
2023/01/30 13:03:18;;;;;;;18.30;12.70;;;;;;;0.05;71.18;98384.98;107219;1257;60791;-40
2023/01/30 13:06:17;;;;;;;16.80;11.20;;;;;;;0.03;71.11;98387.15;107244;1257;61589;-39
2023/01/30 13:09:10;;;;;;;25.30;18.40;;;;;;;-0.01;71.01;98379.35;106542;1257;1003067;-40
2023/01/30 13:11:50;;;;;;;17.90;12.40;;;;;;;-0.06;71.56;98375.55;107260;1257;68847;-39
2023/01/30 13:14:42;;;;;;;15.70;10.80;;;;;;;-0.10;71.69;98367.52;106426;1257;1002876;-38
2023/01/30 13:17:23;;;;;;;16.00;11.20;;;;;;;-0.06;71.68;98362.16;107248;1257;60779;-39
2023/01/30 13:20:01;;;;;;;16.10;10.90;;;;;;;-0.02;71.90;98356.40;107211;1257;61529;-40
2023/01/30 13:22:34;;;;;;;15.90;11.50;;;;;;;0.00;71.61;98360.86;107243;1257;73213;-39
2023/01/30 13:25:24;;;;;;;16.80;11.30;;;;;;;-0.00;71.76;98351.14;107265;1257;69933;-40
2023/01/30 13:27:56;;;;;;;15.70;10.70;;;;;;;-0.00;71.91;98346.11;107231;1257;73855;-40
2023/01/30 13:30:26;;;;;;;16.10;10.70;;;;;;;0.04;71.62;98346.33;107175;1257;62392;-40
2023/01/30 13:33:02;;;;;;;17.80;11.40;;;;;;;0.09;71.58;98341.70;107079;1257;61517;-40
2023/01/30 13:35:34;;;;;;;18.20;11.90;;;;;;;0.09;71.51;98340.77;107172;1257;73906;-40
2023/01/30 13:38:05;;;;;;;16.70;12.10;;;;;;;0.06;71.70;98335.58;107559;1254;69944;-40
2023/01/30 13:40:42;;;;;;;15.00;11.00;;;;;;;0.03;71.60;98338.77;107636;1253;74039;-39
2023/01/30 18:21:21;;;;;;;8.50;6.60;;;;;;;0.11;72.04;98206.84;105181;1281;612994;-39
2023/01/30 18:23:49;;;;;;;8.00;6.10;;;;;;;0.35;69.93;98198.04;106492;1264;191558;-39
2023/01/30 18:26:18;;;;;;;9.70;7.00;;;;;;;0.19;70.07;98197.10;106645;1264;61512;-39
2023/01/30 18:28:47;;;;;;;11.90;7.90;;;;;;;0.13;70.63;98197.15;105978;1267;1002546;-39
2023/01/30 18:31:15;;;;;;;10.10;7.10;;;;;;;0.05;70.65;98201.27;106763;1264;69946;-38
2023/01/30 18:33:44;;;;;;;8.50;6.10;;;;;;;-0.05;71.07;98201.44;106764;1264;72930;-39
2023/01/30 18:36:15;;;;;;;10.80;7.30;;;;;;;-0.13;71.28;98207.48;106855;1264;60787;-38
2023/01/30 18:38:43;;;;;;;9.60;6.90;;;;;;;-0.22;71.85;98208.63;106817;1263;59841;-40
2023/01/30 18:41:14;;;;;;;10.60;7.20;;;;;;;-0.24;72.22;98203.90;106821;1263;70342;-39
2023/01/30 18:43:42;;;;;;;11.00;7.70;;;;;;;-0.24;72.47;98204.81;106802;1264;69971;-39
2023/01/30 18:46:15;;;;;;;12.20;7.80;;;;;;;-0.29;72.77;98200.09;106858;1263;73914;-39
2023/01/30 18:48:45;;;;;;;12.10;7.60;;;;;;;-0.38;73.38;98201.70;106911;1263;59997;-39
2023/01/30 18:51:14;;;;;;;12.10;8.10;;;;;;;-0.46;74.36;98204.59;106894;1264;61238;-39
2023/01/30 18:53:42;;;;;;;12.70;8.60;;;;;;;-0.48;75.34;98199.10;106926;1263;74503;-39
2023/01/30 18:56:13;;;;;;;13.30;8.70;;;;;;;-0.47;76.41;98201.92;106892;1264;69877;-39
2023/01/30 18:58:41;;;;;;;;;;;;;;;-0.52;77.26;98198.89;106930;1264;73457;-40
2023/01/30 19:01:12;;;;;;;14.20;9.80;;;;;;;-0.66;78.14;98195.71;106937;1267;60358;-40
2023/01/30 19:03:43;;;;;;;15.70;9.70;;;;;;;-0.79;79.58;98190.96;106861;1263;61322;-40
2023/01/30 19:06:12;;;;;;;12.90;8.90;;;;;;;-0.78;79.84;98189.60;106884;1264;73970;-40
2023/01/30 19:08:41;;;;;;;16.00;9.70;;;;;;;-0.75;79.92;98194.47;106816;1264;69678;-40
2023/01/30 19:13:59;;;;;;;;;;;;;;;-0.84;80.41;98197.59;106906;1264;60062;-39
2023/01/30 19:16:28;;;;;;;15.20;10.10;;;;;;;-0.90;81.00;98202.61;106862;1264;61044;-38
2023/01/30 19:18:57;;;;;;;14.00;9.60;;;;;;;-0.89;81.20;98191.95;106935;1264;73706;-39
2023/01/30 19:21:26;;;;;;;16.20;10.60;;;;;;;-0.88;81.09;98190.10;106809;1263;69706;-39
2023/01/30 19:23:55;;;;;;;14.30;8.80;;;;;;;-0.90;81.56;98192.05;106889;1263;73907;-38
2023/01/30 19:26:24;;;;;;;17.90;12.10;;;;;;;-0.95;81.23;98187.45;106877;1263;62205;-38
2023/01/30 19:28:53;;;;;;;18.40;11.50;;;;;;;-0.94;81.54;98182.84;106900;1264;61272;-39
2023/01/30 19:31:21;;;;;;;16.50;11.50;;;;;;;-0.89;81.68;98177.44;106881;1265;74210;-39
2023/01/30 19:33:55;;;;;;;21.10;12.50;;;;;;;-0.88;81.92;98176.09;107116;1260;69866;-38
2023/01/30 19:36:24;;;;;;;19.10;12.40;;;;;;;-0.92;81.94;98172.20;107044;1260;73811;-39
2023/01/30 19:38:52;;;;;;;16.00;11.80;;;;;;;-0.96;82.43;98181.15;107045;1260;60639;-39
2023/01/30 19:41:23;;;;;;;17.70;11.70;;;;;;;-0.95;82.34;98177.84;107079;1260;61499;-39
2023/01/30 19:43:52;;;;;;;19.20;13.20;;;;;;;-0.93;82.36;98178.41;107079;1260;74180;-39
2023/01/30 19:46:20;;;;;;;19.00;13.00;;;;;;;-0.95;82.40;98173.20;107092;1263;70043;-39
2023/01/30 19:48:50;;;;;;;16.80;10.00;;;;;;;-1.06;82.56;98154.02;107074;1263;73875;-39
2023/01/30 19:51:22;;;;;;;18.60;12.30;;;;;;;-0.99;82.22;98164.55;107043;1260;62064;-39
2023/01/30 19:53:53;;;;;;;18.30;12.70;;;;;;;-0.96;82.25;98169.77;107026;1260;61560;-39
2023/01/30 19:56:23;;;;;;;20.10;13.50;;;;;;;-0.96;82.40;98172.48;107084;1260;73246;-39
2023/01/30 19:58:53;;;;;;;20.40;14.20;;;;;;;-0.99;82.51;98176.83;107060;1260;68902;-39
2023/01/30 20:01:22;;;;;;;;;;;;;;;-1.04;82.93;98179.75;107072;1263;72985;-39
2023/01/30 20:03:51;;;;;;;17.40;11.60;;;;;;;-1.06;83.04;98175.02;107095;1261;60154;-39
2023/01/30 20:06:21;;;;;;;20.90;13.40;;;;;;;-1.05;83.01;98173.77;106959;1260;61579;-39
2023/01/30 20:08:52;;;;;;;;;;;;;;;-1.05;83.39;98168.60;107051;1260;74055;-39
2023/01/30 20:11:20;;;;;;;22.20;14.10;;;;;;;-1.12;83.80;98175.79;106938;1261;69924;-38
2023/01/30 20:13:49;;;;;;;17.70;10.70;;;;;;;-1.18;83.94;98180.70;107025;1260;73919;-39
2023/01/30 20:16:24;;;;;;;20.20;13.40;;;;;;;-1.12;83.75;98180.80;107027;1260;62377;-39
2023/01/30 20:18:57;;;;;;;23.80;14.80;;;;;;;-1.07;83.79;98170.61;107018;1260;61860;-39
2023/01/30 20:21:26;;;;;;;22.30;14.30;;;;;;;-1.09;83.64;98172.61;106871;1262;73997;-39
2023/01/30 20:23:59;;;;;;;24.70;14.70;;;;;;;-1.11;83.75;98168.69;106850;1266;69800;-39
2023/01/30 20:26:33;;;;;;;17.50;11.20;;;;;;;-1.08;83.75;98168.00;106869;1264;73730;-39
2023/01/30 20:29:03;;;;;;;21.20;13.80;;;;;;;-1.01;83.61;98164.73;106861;1262;59768;-40
2023/01/30 20:31:33;;;;;;;17.60;11.40;;;;;;;-1.01;83.58;98162.25;107245;1257;61521;-40
2023/01/30 20:34:02;;;;;;;;;;;;;;;-1.02;83.87;98160.88;107231;1260;74227;-39
2023/01/30 20:36:31;;;;;;;21.50;13.90;;;;;;;-1.08;84.03;98165.47;107206;1258;69958;-39
2023/01/30 20:39:02;;;;;;;19.20;13.30;;;;;;;-1.07;84.13;98164.77;107212;1257;73947;-39
2023/01/30 20:41:34;;;;;;;22.40;14.70;;;;;;;-0.99;83.77;98170.23;107235;1259;60680;-39
2023/01/30 20:44:03;;;;;;;24.40;15.10;;;;;;;-0.98;83.97;98168.52;107236;1257;61314;-39
2023/01/30 20:46:39;;;;;;;23.00;14.70;;;;;;;-1.00;84.21;98168.20;107275;1257;74282;-39
2023/01/30 20:49:11;;;;;;;23.80;14.80;;;;;;;-1.04;84.34;98165.76;107214;1261;69405;-39
2023/01/30 20:51:40;;;;;;;19.30;13.20;;;;;;;-0.99;84.22;98166.73;107193;1260;73863;-39
2023/01/30 20:54:10;;;;;;;17.60;11.80;;;;;;;-0.93;84.07;98167.60;107262;1258;60227;-39
2023/01/30 20:56:43;;;;;;;26.00;15.90;;;;;;;-0.93;84.20;98166.92;107299;1260;61348;-39
2023/01/30 20:59:14;;;;;;;26.40;15.20;;;;;;;-0.94;84.33;98166.41;107229;1257;74268;-41
2023/01/30 21:01:43;;;;;;;22.20;14.80;;;;;;;-0.96;84.29;98168.83;107203;1260;68557;-40
2023/01/30 21:04:12;;;;;;;21.70;13.20;;;;;;;-0.93;84.21;98169.95;107273;1259;73896;-40
2023/01/30 21:06:41;;;;;;;22.50;15.00;;;;;;;-0.89;84.07;98171.27;107245;1257;59747;-40
2023/01/30 21:09:19;;;;;;;23.70;15.20;;;;;;;-0.90;84.16;98170.70;107181;1260;61257;-40
2023/01/30 21:11:48;;;;;;;24.90;15.80;;;;;;;-0.95;84.42;98168.95;107244;1261;73274;-40
2023/01/30 21:14:17;;;;;;;20.10;13.70;;;;;;;-0.94;84.60;98171.36;107270;1260;69655;-40
2023/01/30 21:16:45;;;;;;;22.30;15.00;;;;;;;-0.88;84.45;98169.10;107186;1258;73869;-40
2023/01/30 21:19:15;;;;;;;24.80;15.70;;;;;;;-0.93;84.34;98154.84;107240;1258;59736;-40
2023/01/30 21:21:49;;;;;;;;;;;;;;;-0.87;84.39;98161.19;107362;1257;61028;-40
2023/01/30 21:24:27;;;;;;;24.20;14.20;;;;;;;-0.94;84.36;98158.53;107357;1256;73119;-40
2023/01/30 21:26:56;;;;;;;22.90;15.20;;;;;;;-1.00;84.88;98157.56;107312;1258;69763;-40
2023/01/30 21:29:25;;;;;;;21.20;13.40;;;;;;;-0.93;84.62;98157.34;107318;1257;74127;-40
2023/01/30 21:31:55;;;;;;;21.50;14.90;;;;;;;-0.87;84.50;98155.98;107345;1257;60790;-40
2023/01/30 21:34:23;;;;;;;24.30;15.30;;;;;;;-0.85;84.48;98155.71;107398;1255;60204;-40
2023/01/30 21:45:14;;;;;;;22.10;14.90;;;;;;;-0.72;83.99;98150.60;107373;1257;60657;-40
2023/01/30 21:47:42;;;;;;;23.40;15.10;;;;;;;-0.74;83.94;98145.09;107389;1256;61517;-40
2023/01/30 21:50:11;;;;;;;24.80;16.30;;;;;;;-0.77;84.05;98147.70;107368;1256;74295;-40
